Time;durP1;ratioP1;P1;durP2;ratioP2;P2;SDS_P1;SDS_P2;PMS_P1;PMS_P2;Temp;Humidity;BMP_temperature;BMP_pressure;BME280_temperature;BME280_humidity;BME280_pressure;Samples;Min_cycle;Max_cycle;Signal;HPM_P1;HPM_P2
2021/12/19 00:02:09;;;;;;;30.80;21.73;;;10.00;99.90;;;;;;5013975;28;20208;-83
2021/12/19 00:09:47;;;;;;;27.48;18.67;;;10.00;99.90;;;;;;5013120;28;20182;-83
2021/12/19 00:12:13;;;;;;;24.73;18.17;;;10.00;99.90;;;;;;5013434;28;20221;-83
2021/12/19 00:14:40;;;;;;;28.23;19.23;;;10.00;99.90;;;;;;5014785;28;20175;-83
2021/12/19 00:17:05;;;;;;;28.27;19.63;;;10.00;99.90;;;;;;5018146;28;20238;-83
2021/12/19 00:19:31;;;;;;;25.37;18.90;;;10.00;99.90;;;;;;5016278;28;20268;-83
2021/12/19 00:21:57;;;;;;;29.07;19.30;;;10.00;99.90;;;;;;5016423;28;20209;-83
2021/12/19 00:24:24;;;;;;;32.27;22.63;;;10.00;99.90;;;;;;5015953;28;20173;-82
2021/12/19 00:26:50;;;;;;;36.00;23.33;;;10.00;99.90;;;;;;5014533;28;20557;-83
2021/12/19 00:29:19;;;;;;;33.72;23.60;;;10.10;99.90;;;;;;5015648;28;20891;-83
2021/12/19 00:31:46;;;;;;;34.92;21.88;;;10.10;99.90;;;;;;5016583;28;20185;-83
2021/12/19 00:34:13;;;;;;;33.10;22.30;;;10.10;99.90;;;;;;5016379;28;20723;-83
2021/12/19 00:36:40;;;;;;;33.40;22.65;;;10.10;99.90;;;;;;5015787;28;20202;-82
2021/12/19 00:39:06;;;;;;;30.65;20.73;;;10.10;99.90;;;;;;5013772;28;20229;-77
2021/12/19 00:41:32;;;;;;;33.85;21.40;;;10.10;99.90;;;;;;5011500;28;20529;-78
2021/12/19 00:44:09;;;;;;;35.70;21.60;;;10.10;99.90;;;;;;5012364;28;20182;-77
2021/12/19 00:46:44;;;;;;;31.63;19.90;;;10.10;99.90;;;;;;5010789;28;20193;-77
2021/12/19 00:49:11;;;;;;;29.15;18.60;;;10.10;99.90;;;;;;5011290;28;20178;-77
2021/12/19 00:51:38;;;;;;;32.25;20.00;;;10.10;99.90;;;;;;5012442;28;20190;-77
2021/12/19 00:54:08;;;;;;;28.75;19.30;;;10.10;99.90;;;;;;5016881;28;20174;-77
2021/12/19 00:56:36;;;;;;;31.75;18.95;;;10.10;99.90;;;;;;4995493;28;20240;-81
2021/12/19 00:59:02;;;;;;;25.15;17.38;;;10.10;99.90;;;;;;5012930;28;20198;-81
2021/12/19 01:01:27;;;;;;;26.90;19.43;;;10.10;99.90;;;;;;5011581;28;20224;-83
2021/12/19 01:03:53;;;;;;;25.87;17.53;;;10.10;99.90;;;;;;5013117;28;20561;-81
2021/12/19 01:06:19;;;;;;;25.88;18.40;;;10.10;99.90;;;;;;4996425;28;20602;-81
2021/12/19 01:08:47;;;;;;;30.33;20.33;;;10.10;99.90;;;;;;5013569;28;20174;-83
2021/12/19 01:11:14;;;;;;;30.77;19.55;;;10.10;99.90;;;;;;5012451;28;21132;-82
2021/12/19 01:13:39;;;;;;;23.25;17.00;;;10.10;99.90;;;;;;5015550;28;20511;-83
2021/12/19 01:16:05;;;;;;;26.30;18.37;;;10.10;99.90;;;;;;5011522;28;20225;-80
2021/12/19 01:18:31;;;;;;;25.00;18.37;;;10.10;99.90;;;;;;5011814;28;20281;-80
2021/12/19 01:20:57;;;;;;;31.53;18.50;;;10.10;99.90;;;;;;5027278;28;20940;-81
2021/12/19 01:23:22;;;;;;;35.20;20.17;;;10.10;99.90;;;;;;5027624;28;20178;-80
2021/12/19 01:25:49;;;;;;;26.67;17.20;;;10.10;99.90;;;;;;5011907;28;20582;-80
2021/12/19 01:28:15;;;;;;;28.67;17.80;;;10.10;99.90;;;;;;5015079;28;20569;-80
2021/12/19 01:30:41;;;;;;;29.27;18.63;;;10.10;99.90;;;;;;5018473;28;20167;-82
2021/12/19 01:33:07;;;;;;;24.50;16.27;;;10.00;99.90;;;;;;5014173;28;20850;-80
2021/12/19 01:35:33;;;;;;;29.60;18.27;;;10.10;99.90;;;;;;5012291;28;20621;-81
2021/12/19 01:37:59;;;;;;;27.03;17.43;;;10.10;99.90;;;;;;5012203;28;20169;-81
2021/12/19 01:40:25;;;;;;;31.67;19.50;;;10.10;99.90;;;;;;5013418;28;20166;-81
2021/12/19 01:42:56;;;;;;;27.07;18.23;;;10.10;99.90;;;;;;5018347;28;20162;-82
2021/12/19 01:45:34;;;;;;;26.92;18.17;;;10.10;99.90;;;;;;5017883;28;20589;-80
2021/12/19 01:48:02;;;;;;;25.38;17.15;;;10.10;99.90;;;;;;5018531;28;20177;-80
2021/12/19 01:50:31;;;;;;;23.80;16.85;;;10.10;99.90;;;;;;5018332;28;20224;-81
2021/12/19 01:52:57;;;;;;;27.95;18.77;;;10.00;99.90;;;;;;5019273;28;20568;-81
2021/12/19 01:55:23;;;;;;;25.08;16.10;;;10.00;99.90;;;;;;5017040;28;20253;-81
2021/12/19 01:57:50;;;;;;;26.13;16.60;;;10.00;99.90;;;;;;5018573;28;20285;-81
2021/12/19 02:00:32;;;;;;;25.23;16.50;;;10.00;99.90;;;;;;5017999;28;21128;-81
2021/12/19 02:02:58;;;;;;;23.92;15.63;;;9.90;99.90;;;;;;5018184;28;20166;-80
2021/12/19 02:05:25;;;;;;;23.57;17.00;;;9.90;99.90;;;;;;5019334;28;20223;-81
2021/12/19 02:07:55;;;;;;;24.48;17.05;;;9.90;99.90;;;;;;5021753;28;20577;-80
2021/12/19 02:10:25;;;;;;;28.05;17.65;;;9.90;99.90;;;;;;5016833;28;20265;-81
2021/12/19 02:12:53;;;;;;;21.45;14.80;;;9.90;99.90;;;;;;5017960;28;20171;-81
2021/12/19 02:15:21;;;;;;;25.42;15.60;;;9.90;99.90;;;;;;5017990;28;20167;-80
2021/12/19 02:17:49;;;;;;;20.08;14.32;;;9.90;99.90;;;;;;5017574;28;20201;-81
2021/12/19 02:20:17;;;;;;;21.83;14.73;;;9.90;99.90;;;;;;5016538;28;20239;-80
2021/12/19 02:22:44;;;;;;;16.05;12.13;;;9.90;99.90;;;;;;5017600;28;20167;-80
2021/12/19 02:25:10;;;;;;;19.75;13.27;;;9.90;99.90;;;;;;5018207;28;20201;-81
2021/12/19 02:27:36;;;;;;;16.52;13.02;;;9.90;99.90;;;;;;5017761;28;20173;-81
2021/12/19 02:30:05;;;;;;;18.50;12.30;;;9.90;99.90;;;;;;5017475;28;20530;-81
2021/12/19 02:32:32;;;;;;;18.60;11.75;;;9.90;99.90;;;;;;5017854;28;20163;-80
2021/12/19 02:35:02;;;;;;;21.98;12.35;;;9.90;99.90;;;;;;5016929;28;20197;-80
2021/12/19 02:48:10;;;;;;;16.20;11.70;;;9.80;99.90;;;;;;5016869;28;20526;-81
2021/12/19 02:50:43;;;;;;;13.25;10.73;;;9.80;99.90;;;;;;5017385;28;20225;-81
2021/12/19 02:53:09;;;;;;;13.82;10.60;;;9.80;99.90;;;;;;5013927;28;20530;-81
2021/12/19 02:55:34;;;;;;;15.67;10.63;;;9.80;99.90;;;;;;5029660;28;20255;-81
2021/12/19 02:58:00;;;;;;;15.83;11.60;;;9.80;99.90;;;;;;5014507;28;20239;-81
2021/12/19 03:00:26;;;;;;;13.60;10.15;;;9.70;99.90;;;;;;5014353;28;20197;-80
2021/12/19 03:02:52;;;;;;;15.20;11.17;;;9.70;99.90;;;;;;5013319;28;20170;-80
2021/12/19 03:05:19;;;;;;;13.97;10.10;;;9.70;99.90;;;;;;5013175;28;20668;-81
2021/12/19 03:07:46;;;;;;;16.08;11.35;;;9.70;99.90;;;;;;5014523;28;20570;-80
2021/12/19 03:18:09;;;;;;;11.68;9.70;;;9.70;99.90;;;;;;5014563;28;20194;-80
2021/12/19 03:20:36;;;;;;;12.73;9.82;;;9.70;99.90;;;;;;5019647;28;20171;-81
2021/12/19 03:23:04;;;;;;;13.18;9.10;;;9.70;99.90;;;;;;5014391;28;20206;-81
2021/12/19 03:25:31;;;;;;;14.52;9.55;;;9.70;99.90;;;;;;5030277;28;20837;-82
2021/12/19 03:27:58;;;;;;;14.48;9.50;;;9.70;99.90;;;;;;5012932;28;20170;-81
2021/12/19 03:30:24;;;;;;;15.30;8.88;;;9.70;99.90;;;;;;5014515;28;20162;-82
2021/12/19 03:32:49;;;;;;;11.50;8.40;;;9.70;99.90;;;;;;5014161;28;20189;-81
2021/12/19 03:35:16;;;;;;;12.57;8.27;;;9.70;99.90;;;;;;5012983;28;20206;-81
2021/12/19 03:37:43;;;;;;;12.13;8.60;;;9.70;99.90;;;;;;5015122;28;20731;-80
2021/12/19 03:40:12;;;;;;;12.35;9.23;;;9.70;99.90;;;;;;5015255;28;20163;-81
2021/12/19 03:42:42;;;;;;;12.23;9.00;;;9.70;99.90;;;;;;5012892;28;20217;-80
2021/12/19 03:45:10;;;;;;;12.88;7.63;;;9.70;99.90;;;;;;5014638;28;20638;-81
2021/12/19 03:47:38;;;;;;;11.80;8.68;;;9.70;99.90;;;;;;5029703;28;20198;-81
2021/12/19 03:50:08;;;;;;;13.82;9.38;;;9.70;99.90;;;;;;5014035;28;20171;-80
2021/12/19 03:52:34;;;;;;;9.40;7.97;;;9.70;99.90;;;;;;5012385;28;20174;-80
2021/12/19 03:55:00;;;;;;;10.27;8.50;;;9.70;99.90;;;;;;5029397;28;20182;-80
2021/12/19 03:57:26;;;;;;;9.57;6.93;;;9.70;99.90;;;;;;5035047;28;20288;-81
2021/12/19 03:59:52;;;;;;;11.87;9.23;;;9.70;99.90;;;;;;5013128;28;20213;-80
2021/12/19 04:02:25;;;;;;;10.57;7.53;;;9.70;99.90;;;;;;5012306;28;20166;-79
2021/12/19 04:04:51;;;;;;;10.43;8.15;;;9.70;99.90;;;;;;5028272;28;20534;-79
2021/12/19 04:07:17;;;;;;;9.25;6.43;;;9.70;99.90;;;;;;5012110;28;20198;-79
2021/12/19 04:09:43;;;;;;;11.77;8.32;;;9.70;99.90;;;;;;5011423;28;20166;-79
2021/12/19 04:12:09;;;;;;;11.17;7.90;;;9.70;99.90;;;;;;5013403;28;20172;-79
2021/12/19 04:14:35;;;;;;;11.70;8.30;;;9.70;99.90;;;;;;5028066;28;20178;-80
2021/12/19 04:17:01;;;;;;;11.43;7.82;;;9.70;99.90;;;;;;5013363;28;20197;-79
2021/12/19 04:19:28;;;;;;;9.33;7.20;;;9.70;99.90;;;;;;5013129;28;20503;-80
2021/12/19 04:21:55;;;;;;;8.88;6.65;;;9.70;99.90;;;;;;5028026;28;21198;-79
2021/12/19 04:24:20;;;;;;;9.75;7.28;;;9.70;99.90;;;;;;5012747;28;20166;-79
2021/12/19 04:26:46;;;;;;;11.90;7.63;;;9.70;99.90;;;;;;5012968;28;20237;-81
2021/12/19 04:29:12;;;;;;;12.10;7.67;;;9.70;99.90;;;;;;5011947;28;20198;-79
2021/12/19 04:31:38;;;;;;;10.00;6.93;;;9.70;99.90;;;;;;5011320;28;20177;-79
2021/12/19 04:34:04;;;;;;;10.27;6.75;;;9.70;99.90;;;;;;5033538;28;20175;-79
2021/12/19 04:36:35;;;;;;;10.40;6.80;;;9.70;99.90;;;;;;5011223;28;20293;-79
2021/12/19 04:51:02;;;;;;;10.25;7.93;;;9.60;99.90;;;;;;5028088;28;20232;-79
2021/12/19 04:57:55;;;;;;;7.57;5.82;;;9.60;99.90;;;;;;5012430;28;20216;-81
2021/12/19 05:00:32;;;;;;;7.55;6.40;;;9.60;99.90;;;;;;5012101;28;20173;-81
2021/12/19 05:03:05;;;;;;;10.05;6.50;;;9.70;99.90;;;;;;5027211;28;20185;-80
2021/12/19 05:06:01;;;;;;;9.88;6.78;;;9.60;99.90;;;;;;5012673;28;20171;-80
2021/12/19 05:14:08;;;;;;;8.38;6.63;;;9.60;99.90;;;;;;4975729;28;20406;-81
2021/12/19 05:16:37;;;;;;;8.15;5.80;;;9.60;99.90;;;;;;5011774;28;20217;-81
2021/12/19 05:19:10;;;;;;;8.68;6.68;;;9.60;99.90;;;;;;5012331;28;20182;-81
2021/12/19 05:21:39;;;;;;;7.88;6.78;;;9.60;99.90;;;;;;5011635;28;20549;-81
2021/12/19 05:26:47;;;;;;;7.45;5.60;;;9.60;99.90;;;;;;5012036;28;20693;-81
2021/12/19 05:29:14;;;;;;;10.45;7.05;;;9.60;99.90;;;;;;5011989;28;20228;-81
2021/12/19 05:31:40;;;;;;;9.18;6.03;;;9.60;99.90;;;;;;5026695;28;20182;-81
2021/12/19 05:34:06;;;;;;;8.57;6.23;;;9.60;99.90;;;;;;5010633;28;20167;-81
2021/12/19 05:47:24;;;;;;;9.13;5.93;;;9.60;99.90;;;;;;5015807;28;20196;-81
2021/12/19 05:49:50;;;;;;;7.97;6.10;;;9.60;99.90;;;;;;5013865;28;20716;-81
2021/12/19 05:52:16;;;;;;;8.67;7.10;;;9.60;99.90;;;;;;5027187;28;20253;-80
2021/12/19 05:54:42;;;;;;;10.93;5.80;;;9.60;99.90;;;;;;5012189;28;20899;-82
2021/12/19 05:57:09;;;;;;;8.98;5.53;;;9.60;99.90;;;;;;5011940;28;20629;-81
2021/12/19 05:59:35;;;;;;;9.27;6.47;;;9.60;99.90;;;;;;5012432;28;20224;-81
2021/12/19 06:02:01;;;;;;;8.18;5.97;;;9.60;99.90;;;;;;5012840;28;20170;-81
2021/12/19 06:04:27;;;;;;;10.40;5.83;;;9.60;99.90;;;;;;5012485;28;20221;-81
2021/12/19 06:06:52;;;;;;;8.33;6.43;;;9.60;99.90;;;;;;5013170;28;20605;-81
2021/12/19 06:09:18;;;;;;;6.50;5.50;;;9.60;99.90;;;;;;5014355;28;20251;-82
2021/12/19 06:11:44;;;;;;;8.00;5.20;;;9.60;99.90;;;;;;5017454;28;20177;-82
2021/12/19 06:14:10;;;;;;;8.03;6.40;;;9.60;99.90;;;;;;5013937;28;21143;-81
2021/12/19 06:16:35;;;;;;;6.73;6.03;;;9.60;99.90;;;;;;5011832;28;20217;-81
2021/12/19 06:19:01;;;;;;;6.80;5.90;;;9.60;99.90;;;;;;5011815;28;20167;-81
2021/12/19 06:21:27;;;;;;;6.03;5.33;;;9.70;99.90;;;;;;5011756;28;20205;-81
2021/12/19 06:23:53;;;;;;;6.50;5.80;;;9.60;99.90;;;;;;5012062;28;20209;-81
2021/12/19 06:26:18;;;;;;;7.03;4.70;;;9.60;99.90;;;;;;5014895;28;20593;-82
2021/12/19 06:28:44;;;;;;;7.00;6.30;;;9.60;99.90;;;;;;5014730;28;20258;-82
2021/12/19 06:31:10;;;;;;;8.20;5.70;;;9.60;99.90;;;;;;5014754;28;20170;-82
2021/12/19 06:33:36;;;;;;;7.10;5.30;;;9.60;99.90;;;;;;5015160;28;20228;-82
2021/12/19 06:36:02;;;;;;;9.10;6.27;;;9.70;99.90;;;;;;5014680;28;20263;-82
2021/12/19 06:38:28;;;;;;;6.32;5.47;;;9.60;99.90;;;;;;5015727;28;20627;-78
2021/12/19 06:40:55;;;;;;;8.35;6.15;;;9.60;99.90;;;;;;5014459;28;20174;-78
2021/12/19 06:43:21;;;;;;;7.60;5.53;;;9.60;99.90;;;;;;5029708;28;20166;-78
2021/12/19 06:45:47;;;;;;;7.75;5.82;;;9.60;99.90;;;;;;5014726;28;20190;-78
2021/12/19 06:48:13;;;;;;;7.10;6.20;;;9.60;99.90;;;;;;5014781;28;20167;-77
2021/12/19 06:50:39;;;;;;;7.70;5.80;;;9.60;99.90;;;;;;5014027;28;20167;-78
2021/12/19 06:53:05;;;;;;;8.20;5.70;;;9.60;99.90;;;;;;5013180;28;20177;-78
2021/12/19 06:55:30;;;;;;;7.70;5.80;;;9.60;99.90;;;;;;5030000;28;20166;-77
2021/12/19 06:57:56;;;;;;;7.90;6.10;;;9.60;99.90;;;;;;5014550;28;20244;-78
2021/12/19 07:00:24;;;;;;;7.77;5.33;;;9.60;99.90;;;;;;5014403;28;20170;-77
2021/12/19 07:02:52;;;;;;;6.00;5.40;;;9.70;99.90;;;;;;5016811;28;20181;-78
2021/12/19 07:05:18;;;;;;;6.43;4.57;;;9.70;99.90;;;;;;5014352;28;20577;-78
2021/12/19 07:07:43;;;;;;;5.53;4.67;;;9.70;99.90;;;;;;5014278;28;20264;-77
2021/12/19 07:10:09;;;;;;;7.53;5.27;;;9.70;99.90;;;;;;5014108;28;20281;-78
2021/12/19 07:12:35;;;;;;;6.27;5.30;;;9.70;99.90;;;;;;5013938;28;20260;-77
2021/12/19 07:15:01;;;;;;;7.93;5.90;;;9.70;99.90;;;;;;5014338;28;20978;-77
2021/12/19 07:17:27;;;;;;;7.03;5.07;;;9.70;99.90;;;;;;5013695;28;20212;-77
2021/12/19 07:19:52;;;;;;;6.70;5.85;;;9.70;99.90;;;;;;5013618;28;20174;-77
2021/12/19 07:22:19;;;;;;;7.13;5.40;;;9.70;99.90;;;;;;5014275;28;20158;-77
2021/12/19 07:24:46;;;;;;;7.57;6.10;;;9.70;99.90;;;;;;5013717;28;20205;-77
2021/12/19 07:27:12;;;;;;;7.10;5.60;;;9.70;99.90;;;;;;5012949;28;20608;-77
2021/12/19 07:29:38;;;;;;;7.40;5.22;;;9.70;99.90;;;;;;5013386;28;20284;-77
2021/12/19 07:32:04;;;;;;;6.43;5.10;;;9.70;99.90;;;;;;5014002;28;20257;-77
2021/12/19 07:34:33;;;;;;;7.05;5.85;;;9.70;99.90;;;;;;5013321;28;20631;-78
2021/12/19 07:37:00;;;;;;;7.93;6.32;;;9.70;99.90;;;;;;5014004;28;20628;-77
2021/12/19 07:41:53;;;;;;;8.88;6.25;;;9.70;99.90;;;;;;5028928;28;20538;-78
2021/12/19 07:44:19;;;;;;;9.17;6.10;;;9.70;99.90;;;;;;5013310;28;20193;-78
2021/12/19 07:46:45;;;;;;;8.40;6.32;;;9.70;99.90;;;;;;5013596;28;20600;-77
2021/12/19 07:49:12;;;;;;;8.13;6.20;;;9.70;99.90;;;;;;5013689;28;20249;-77
2021/12/19 07:51:38;;;;;;;10.13;6.90;;;9.70;99.90;;;;;;5012942;28;20569;-78
2021/12/19 07:54:04;;;;;;;9.50;6.70;;;9.70;99.90;;;;;;5012213;28;20166;-78
2021/12/19 07:56:31;;;;;;;7.20;6.27;;;9.70;99.90;;;;;;5013367;28;20704;-78
2021/12/19 07:58:57;;;;;;;8.98;6.53;;;9.70;99.90;;;;;;5013467;28;20194;-78
2021/12/19 08:01:22;;;;;;;9.43;7.30;;;9.70;99.90;;;;;;5011510;28;20198;-77
2021/12/19 08:03:48;;;;;;;11.80;7.30;;;9.70;99.90;;;;;;5011936;28;20162;-78
2021/12/19 08:06:14;;;;;;;9.80;6.00;;;9.70;99.90;;;;;;5013049;28;20194;-77
2021/12/19 08:08:46;;;;;;;9.05;5.75;;;9.70;99.90;;;;;;5013438;28;20167;-77
2021/12/19 08:13:56;;;;;;;6.80;5.20;;;9.60;99.90;;;;;;5013048;28;20174;-77
2021/12/19 08:16:22;;;;;;;6.70;4.70;;;9.60;99.90;;;;;;5018024;28;20201;-76
2021/12/19 08:18:49;;;;;;;6.33;4.20;;;9.60;99.90;;;;;;5013047;28;20163;-77
2021/12/19 08:21:14;;;;;;;5.53;4.15;;;9.60;99.90;;;;;;5012601;28;20229;-77
2021/12/19 08:23:40;;;;;;;5.10;3.27;;;9.60;99.90;;;;;;5012508;28;20174;-77
2021/12/19 08:26:06;;;;;;;5.50;3.50;;;9.50;99.90;;;;;;5028124;28;20204;-77
2021/12/19 08:28:32;;;;;;;4.40;3.20;;;9.60;99.90;;;;;;5012803;28;20260;-78
2021/12/19 08:30:58;;;;;;;5.20;3.10;;;9.50;99.90;;;;;;5027375;28;20627;-77
2021/12/19 08:33:23;;;;;;;4.00;2.80;;;9.50;99.90;;;;;;5012464;28;20170;-77
2021/12/19 08:35:49;;;;;;;4.10;2.73;;;9.50;99.90;;;;;;5012827;28;20213;-77
2021/12/19 08:38:15;;;;;;;2.70;1.73;;;9.50;99.90;;;;;;5012924;28;20265;-78
2021/12/19 08:40:43;;;;;;;1.95;1.38;;;9.50;99.90;;;;;;5012134;28;20533;-78
2021/12/19 08:43:10;;;;;;;2.00;1.10;;;9.50;99.90;;;;;;5012372;28;20253;-77
2021/12/19 08:45:35;;;;;;;2.83;1.38;;;9.50;99.90;;;;;;5011191;28;20191;-78
2021/12/19 08:48:03;;;;;;;2.13;1.17;;;9.50;99.90;;;;;;5012854;28;20166;-77
2021/12/19 08:50:29;;;;;;;1.48;0.85;;;9.50;99.90;;;;;;5010422;28;20209;-77
2021/12/19 08:52:55;;;;;;;2.53;1.33;;;9.60;99.90;;;;;;5017146;28;20174;-77
2021/12/19 08:55:21;;;;;;;1.90;0.83;;;9.60;99.90;;;;;;5012592;28;21128;-77
2021/12/19 08:57:47;;;;;;;3.50;1.50;;;9.60;99.90;;;;;;5012437;28;20560;-77
2021/12/19 09:00:18;;;;;;;2.70;1.47;;;9.60;99.90;;;;;;5010310;28;20170;-77
2021/12/19 09:02:47;;;;;;;2.65;1.48;;;9.60;99.90;;;;;;5014200;28;20170;-76
2021/12/19 09:05:13;;;;;;;2.28;1.45;;;9.60;99.90;;;;;;5012112;28;20171;-76
2021/12/19 09:07:39;;;;;;;2.83;1.40;;;9.60;99.90;;;;;;5027466;28;20540;-76
2021/12/19 09:10:06;;;;;;;3.97;2.37;;;9.60;99.90;;;;;;5011119;28;20167;-77
2021/12/19 09:12:32;;;;;;;3.33;1.70;;;9.60;99.90;;;;;;5012054;28;20178;-76
2021/12/19 09:14:58;;;;;;;3.80;2.13;;;9.60;99.90;;;;;;5011647;28;20170;-76
2021/12/19 09:17:24;;;;;;;4.90;2.67;;;9.70;99.90;;;;;;5012009;28;20241;-77
2021/12/19 09:19:50;;;;;;;2.70;2.13;;;9.70;99.90;;;;;;5011421;28;20201;-76
2021/12/19 09:22:16;;;;;;;3.30;2.47;;;9.70;99.90;;;;;;5010586;28;20732;-77
2021/12/19 09:24:42;;;;;;;4.68;2.38;;;9.70;99.90;;;;;;5011691;28;20266;-77
2021/12/19 09:27:08;;;;;;;4.33;2.63;;;9.70;99.90;;;;;;5010219;28;20204;-77
2021/12/19 09:29:35;;;;;;;3.83;2.67;;;9.80;99.90;;;;;;5015417;28;20155;-77
2021/12/19 09:32:01;;;;;;;5.60;2.80;;;9.80;99.90;;;;;;5010661;28;20178;-77
2021/12/19 09:34:28;;;;;;;7.93;2.75;;;9.80;99.90;;;;;;5010422;28;20545;-77
2021/12/19 09:36:55;;;;;;;3.60;2.33;;;9.80;99.90;;;;;;5011522;28;20293;-77
2021/12/19 09:39:23;;;;;;;3.65;3.10;;;9.90;99.90;;;;;;5012082;28;20589;-77
2021/12/19 09:41:59;;;;;;;3.60;2.70;;;9.90;99.90;;;;;;5010160;28;20221;-77
2021/12/19 09:44:25;;;;;;;4.15;2.10;;;9.90;99.90;;;;;;5011494;28;20166;-76
2021/12/19 09:46:51;;;;;;;3.87;2.10;;;10.00;99.90;;;;;;5026801;28;20286;-77
2021/12/19 09:49:19;;;;;;;4.07;2.70;;;10.00;99.90;;;;;;5012032;28;20194;-77
2021/12/19 09:51:46;;;;;;;2.17;1.60;;;10.00;99.90;;;;;;5011247;28;20532;-77
2021/12/19 09:54:12;;;;;;;3.05;2.00;;;10.00;99.90;;;;;;5026820;28;20174;-77
2021/12/19 09:56:39;;;;;;;2.80;2.03;;;10.10;99.90;;;;;;5011715;28;20285;-77
2021/12/19 09:59:10;;;;;;;2.00;1.40;;;10.10;99.90;;;;;;5010165;28;20175;-77
2021/12/19 10:01:36;;;;;;;2.85;1.55;;;10.10;99.90;;;;;;5011464;28;20169;-77
2021/12/19 10:04:02;;;;;;;2.83;1.40;;;10.10;99.90;;;;;;5014286;28;20162;-77
2021/12/19 10:06:30;;;;;;;2.63;1.48;;;10.20;99.90;;;;;;5020101;28;20210;-77
2021/12/19 10:09:15;;;;;;;2.92;1.95;;;10.20;99.90;;;;;;5014844;28;20185;-76
2021/12/19 10:11:58;;;;;;;1.92;1.42;;;10.30;99.90;;;;;;5013995;28;20231;-77
2021/12/19 10:14:33;;;;;;;2.30;1.60;;;10.30;99.90;;;;;;5013860;28;20186;-77
2021/12/19 10:17:06;;;;;;;2.05;1.50;;;10.30;99.90;;;;;;5015399;28;20216;-76
2021/12/19 10:19:53;;;;;;;2.80;1.30;;;10.30;99.90;;;;;;5029856;28;20180;-76
2021/12/19 10:22:27;;;;;;;1.80;1.10;;;10.40;99.90;;;;;;5003488;28;20210;-76
2021/12/19 10:24:55;;;;;;;1.60;1.25;;;10.40;99.90;;;;;;4994383;28;20193;-76
2021/12/19 10:27:37;;;;;;;2.42;1.30;;;10.40;99.90;;;;;;5003557;28;20219;-75
2021/12/19 10:30:35;;;;;;;2.60;1.20;;;10.40;99.90;;;;;;5010403;28;20178;-75
2021/12/19 10:33:05;;;;;;;2.47;1.45;;;10.50;99.90;;;;;;5032093;28;20165;-79
2021/12/19 10:35:34;;;;;;;2.47;1.20;;;10.60;99.90;;;;;;5055440;28;20193;-78
2021/12/19 10:38:03;;;;;;;2.25;1.20;;;10.60;99.90;;;;;;5039028;28;20205;-78
2021/12/19 10:40:29;;;;;;;3.58;1.20;;;10.70;99.90;;;;;;5049301;28;20186;-79
2021/12/19 10:43:01;;;;;;;2.10;1.20;;;10.70;99.90;;;;;;5031359;28;20517;-80
2021/12/19 10:45:33;;;;;;;1.50;0.90;;;10.80;99.90;;;;;;5034644;28;20170;-79
2021/12/19 10:48:14;;;;;;;1.65;0.90;;;10.80;99.90;;;;;;5034437;28;20166;-79
2021/12/19 10:50:47;;;;;;;1.55;0.82;;;10.90;99.90;;;;;;5035802;28;20344;-78
2021/12/19 10:53:15;;;;;;;1.45;0.95;;;10.90;99.90;;;;;;5031810;28;20170;-79
2021/12/19 10:55:46;;;;;;;2.00;1.00;;;10.90;99.90;;;;;;5028859;28;20241;-78
2021/12/19 10:58:25;;;;;;;1.67;1.02;;;10.90;99.90;;;;;;5022583;28;20237;-80
2021/12/19 11:00:55;;;;;;;2.60;1.10;;;10.90;99.90;;;;;;5018275;28;20170;-80
2021/12/19 11:03:47;;;;;;;1.50;0.82;;;11.00;99.90;;;;;;5015865;28;20264;-76
2021/12/19 11:06:43;;;;;;;2.15;1.00;;;11.00;99.90;;;;;;5012938;28;20202;-75
2021/12/19 11:09:21;;;;;;;1.70;1.00;;;11.10;99.90;;;;;;5010768;28;20186;-76
2021/12/19 11:11:53;;;;;;;1.98;1.17;;;11.10;99.90;;;;;;5013827;28;20224;-77
2021/12/19 11:14:23;;;;;;;1.67;1.00;;;11.20;99.90;;;;;;5028514;28;20269;-77
2021/12/19 11:16:54;;;;;;;1.40;0.90;;;11.20;99.90;;;;;;5020453;28;20233;-80
2021/12/19 11:19:20;;;;;;;1.30;0.80;;;11.20;99.90;;;;;;5014828;28;20181;-77
2021/12/19 11:21:47;;;;;;;1.52;0.98;;;11.20;99.90;;;;;;5019054;28;20689;-77
2021/12/19 11:24:17;;;;;;;1.60;1.00;;;11.20;99.90;;;;;;5014329;28;20698;-78
2021/12/19 11:26:45;;;;;;;1.80;0.98;;;11.20;99.90;;;;;;5015795;28;20182;-81
2021/12/19 11:29:13;;;;;;;1.30;0.80;;;11.30;99.90;;;;;;5022974;28;20222;-82
2021/12/19 11:31:41;;;;;;;1.90;1.10;;;11.30;99.90;;;;;;5031794;28;20685;-80
2021/12/19 11:34:33;;;;;;;2.25;1.08;;;11.30;99.90;;;;;;5033351;28;20595;-80
2021/12/19 11:37:13;;;;;;;2.20;1.42;;;11.20;99.90;;;;;;5018500;28;20229;-81
2021/12/19 11:39:42;;;;;;;2.00;1.42;;;11.30;99.90;;;;;;5034836;28;20170;-80
2021/12/19 11:42:21;;;;;;;1.67;0.98;;;11.20;99.90;;;;;;5014037;28;20167;-79
2021/12/19 11:47:54;;;;;;;2.70;1.38;;;11.20;99.90;;;;;;5013748;28;20743;-79
2021/12/19 11:50:27;;;;;;;1.67;1.23;;;11.20;99.90;;;;;;5014650;28;20185;-79
2021/12/19 11:52:56;;;;;;;2.45;1.20;;;11.30;99.90;;;;;;5013409;28;20205;-80
2021/12/19 11:55:41;;;;;;;2.35;1.73;;;11.30;99.90;;;;;;5029071;28;20179;-81
2021/12/19 11:58:07;;;;;;;2.08;1.77;;;11.30;99.90;;;;;;5013764;28;20654;-80
2021/12/19 12:00:58;;;;;;;2.00;1.27;;;11.20;99.90;;;;;;5024767;28;20181;-81
2021/12/19 12:03:26;;;;;;;1.73;1.30;;;11.20;99.90;;;;;;5019568;28;20182;-81
2021/12/19 12:06:08;;;;;;;2.15;1.35;;;11.20;99.90;;;;;;5030001;28;20194;-81
2021/12/19 12:08:34;;;;;;;1.90;1.20;;;11.20;99.90;;;;;;5036861;28;20154;-81
2021/12/19 12:11:01;;;;;;;1.80;1.23;;;11.20;99.90;;;;;;5035954;28;20190;-81
2021/12/19 12:13:37;;;;;;;2.20;1.10;;;11.10;99.90;;;;;;5035286;28;20171;-82
2021/12/19 12:16:18;;;;;;;1.65;1.20;;;11.10;99.90;;;;;;5031384;28;20197;-82
2021/12/19 12:18:44;;;;;;;2.00;1.23;;;11.10;99.90;;;;;;5021910;28;20183;-79
2021/12/19 12:21:19;;;;;;;1.60;0.90;;;11.00;99.90;;;;;;5012399;28;20173;-79
2021/12/19 12:24:05;;;;;;;1.40;0.90;;;11.00;99.90;;;;;;4992940;28;20793;-78
2021/12/19 12:26:41;;;;;;;1.30;0.80;;;11.00;99.90;;;;;;4993175;28;20199;-78
2021/12/19 12:29:07;;;;;;;1.40;0.80;;;10.90;99.90;;;;;;4991863;28;20182;-77
2021/12/19 12:31:33;;;;;;;1.60;0.80;;;10.90;99.90;;;;;;4991182;28;20187;-79
2021/12/19 12:33:59;;;;;;;1.30;0.80;;;10.90;99.90;;;;;;4993825;28;20574;-78
2021/12/19 12:36:25;;;;;;;1.40;0.75;;;10.90;99.90;;;;;;5014940;28;20201;-78
2021/12/19 12:38:52;;;;;;;2.08;1.10;;;10.80;99.90;;;;;;5012758;28;20166;-77
2021/12/19 12:41:40;;;;;;;2.75;1.20;;;10.80;99.90;;;;;;5012279;28;20190;-78
2021/12/19 12:44:21;;;;;;;1.55;1.10;;;10.80;99.90;;;;;;5011059;28;20170;-78
2021/12/19 12:46:47;;;;;;;2.42;1.42;;;10.80;99.90;;;;;;5012115;28;20249;-77
2021/12/19 12:49:21;;;;;;;2.10;1.60;;;10.80;99.90;;;;;;5012442;28;20185;-77
2021/12/19 12:52:04;;;;;;;2.60;1.90;;;10.80;99.90;;;;;;5011820;28;20224;-77
2021/12/19 12:54:36;;;;;;;2.85;1.52;;;10.80;99.90;;;;;;5011870;28;20192;-78
2021/12/19 12:57:10;;;;;;;3.88;2.58;;;10.80;99.90;;;;;;5011880;28;20209;-77
2021/12/19 12:59:41;;;;;;;3.58;2.25;;;10.80;99.90;;;;;;5011756;28;20200;-77
2021/12/19 13:02:22;;;;;;;2.00;1.30;;;10.80;99.90;;;;;;5010445;28;20170;-78
2021/12/19 13:04:50;;;;;;;2.22;1.45;;;10.80;99.90;;;;;;5012073;28;20533;-77
2021/12/19 13:07:22;;;;;;;2.17;1.60;;;10.70;99.90;;;;;;5011946;28;20238;-78
2021/12/19 13:09:49;;;;;;;2.67;1.38;;;10.70;99.90;;;;;;5010390;28;20226;-77
2021/12/19 13:12:29;;;;;;;2.85;1.90;;;10.70;99.90;;;;;;5015271;28;20232;-78
2021/12/19 13:15:12;;;;;;;2.90;1.50;;;10.60;99.90;;;;;;5011944;28;20253;-79
2021/12/19 13:17:40;;;;;;;2.28;1.40;;;10.60;99.90;;;;;;5011651;28;20210;-78
2021/12/19 13:20:18;;;;;;;2.20;1.85;;;10.60;99.90;;;;;;5011327;28;20167;-77
2021/12/19 13:22:53;;;;;;;2.50;1.73;;;10.50;99.90;;;;;;5011624;28;20185;-77
2021/12/19 13:25:26;;;;;;;2.78;1.95;;;10.50;99.90;;;;;;5011679;28;20250;-77
2021/12/19 13:27:55;;;;;;;3.28;1.92;;;10.50;99.90;;;;;;5027304;28;20554;-76
2021/12/19 13:30:27;;;;;;;2.33;1.60;;;10.50;99.90;;;;;;5011274;28;20260;-77
2021/12/19 13:33:14;;;;;;;2.05;1.67;;;10.50;99.90;;;;;;5011493;28;20636;-77
2021/12/19 13:35:45;;;;;;;3.30;1.48;;;10.40;99.90;;;;;;5010239;28;20629;-77
2021/12/19 13:38:15;;;;;;;3.00;2.20;;;10.50;99.90;;;;;;5015223;28;20725;-77
2021/12/19 13:40:55;;;;;;;2.00;1.30;;;10.40;99.90;;;;;;5011533;28;20174;-77
2021/12/19 13:43:32;;;;;;;5.28;3.60;;;10.40;99.90;;;;;;5011375;28;20206;-78
2021/12/19 13:45:59;;;;;;;3.50;1.27;;;10.40;99.90;;;;;;5011428;28;20190;-78
2021/12/19 13:48:37;;;;;;;1.63;0.90;;;10.40;99.90;;;;;;5011648;28;20167;-77
2021/12/19 13:51:12;;;;;;;14.15;5.18;;;10.40;99.90;;;;;;5011325;28;20185;-77
2021/12/19 13:53:41;;;;;;;2.10;1.30;;;10.40;99.90;;;;;;5011015;28;20180;-77
2021/12/19 13:56:13;;;;;;;2.95;1.20;;;10.40;99.90;;;;;;5011303;28;20635;-77
2021/12/19 13:58:48;;;;;;;1.40;0.80;;;10.30;99.90;;;;;;5010043;28;20175;-77
2021/12/19 14:01:18;;;;;;;1.30;0.80;;;10.30;99.90;;;;;;5010571;28;20527;-77
2021/12/19 14:03:50;;;;;;;1.40;0.82;;;10.30;99.90;;;;;;5010213;28;20227;-77